createdAt,value
2022-10-18T00:00:56.813Z,8.70
2022-10-18T00:03:38.019Z,8.69
2022-10-18T00:06:09.292Z,8.69
2022-10-18T00:08:39.223Z,8.68
2022-10-18T00:11:08.242Z,8.60
2022-10-18T00:13:36.936Z,8.48
2022-10-18T00:16:13.591Z,8.40
2022-10-18T00:18:42.854Z,8.39
2022-10-18T00:21:15.588Z,8.35
2022-10-18T00:23:45.498Z,8.38
2022-10-18T00:26:14.447Z,8.36
2022-10-18T00:28:43.458Z,8.30
2022-10-18T00:31:17.478Z,8.25
2022-10-18T00:33:50.875Z,8.16
2022-10-18T00:36:19.469Z,8.14
2022-10-18T00:38:48.948Z,8.10
2022-10-18T00:41:25.072Z,8.15
2022-10-18T00:44:03.779Z,8.19
2022-10-18T00:46:38.082Z,8.12
2022-10-18T00:49:16.902Z,8.05
2022-10-18T00:52:03.603Z,8.01
2022-10-18T00:54:37.013Z,8.00
2022-10-18T00:57:06.424Z,8.08
2022-10-18T00:59:36.294Z,8.14
2022-10-18T01:02:05.754Z,8.06
2022-10-18T01:04:34.730Z,8.06
2022-10-18T01:07:33.928Z,8.02
2022-10-18T01:10:18.730Z,7.94
2022-10-18T01:13:04.839Z,7.91
2022-10-18T01:16:19.127Z,7.91
2022-10-18T01:19:06.288Z,7.89
2022-10-18T01:22:02.515Z,7.80
2022-10-18T01:24:39.193Z,7.72
2022-10-18T01:27:32.534Z,7.79
2022-10-18T01:30:39.202Z,7.76
2022-10-18T01:33:26.808Z,7.68
2022-10-18T01:36:42.749Z,7.56
2022-10-18T01:39:36.468Z,7.52
2022-10-18T01:42:09.951Z,7.47
2022-10-18T01:44:41.221Z,7.46
2022-10-18T01:47:13.404Z,7.51
2022-10-18T01:49:41.408Z,7.47
2022-10-18T01:52:14.313Z,7.36
2022-10-18T01:54:51.248Z,7.34
2022-10-18T01:57:46.377Z,7.38
2022-10-18T02:00:37.075Z,7.45
2022-10-18T02:03:21.337Z,7.41
2022-10-18T02:06:02.491Z,7.40
2022-10-18T02:08:51.040Z,7.45
2022-10-18T02:11:19.177Z,7.51
2022-10-18T02:14:06.202Z,7.43
2022-10-18T02:16:52.170Z,7.29
2022-10-18T02:19:30.946Z,7.19
2022-10-18T02:22:00.136Z,7.21
2022-10-18T02:24:37.904Z,7.24
2022-10-18T02:27:06.260Z,7.26
2022-10-18T02:29:35.105Z,7.33
2022-10-18T02:32:19.750Z,7.35
2022-10-18T02:35:52.489Z,7.24
2022-10-18T02:38:23.880Z,7.02
2022-10-18T02:40:52.212Z,6.88
2022-10-18T02:43:20.058Z,6.83
2022-10-18T02:45:47.943Z,6.93
2022-10-18T02:48:15.855Z,7.00
2022-10-18T02:50:43.689Z,6.99
2022-10-18T02:53:11.512Z,7.03
2022-10-18T02:55:39.329Z,7.04
2022-10-18T02:58:07.184Z,7.05
2022-10-18T03:00:35.000Z,6.93
2022-10-18T03:03:02.882Z,6.93
2022-10-18T03:05:30.719Z,6.96
2022-10-18T03:07:58.541Z,6.92
2022-10-18T03:10:26.405Z,6.91
2022-10-18T03:12:54.583Z,6.93
2022-10-18T03:15:22.412Z,6.94
2022-10-18T03:17:50.260Z,6.90
2022-10-18T03:20:18.135Z,6.74
2022-10-18T03:22:45.930Z,6.67
2022-10-18T03:25:13.922Z,6.64
2022-10-18T03:27:41.802Z,6.70
2022-10-18T03:30:11.808Z,6.72
2022-10-18T03:32:41.023Z,6.71
2022-10-18T03:35:09.695Z,6.58
2022-10-18T03:37:38.515Z,6.50
2022-10-18T03:40:07.671Z,6.43
2022-10-18T03:42:35.558Z,6.35
2022-10-18T03:45:04.487Z,6.34
2022-10-18T03:47:32.295Z,6.37
2022-10-18T03:50:00.165Z,6.34
2022-10-18T03:52:28.274Z,6.36
2022-10-18T03:54:56.189Z,6.43
2022-10-18T03:57:24.049Z,6.48
2022-10-18T03:59:51.906Z,6.38
2022-10-18T04:02:19.725Z,6.29
2022-10-18T04:04:47.575Z,6.22
2022-10-18T04:07:15.945Z,6.26
2022-10-18T04:09:43.942Z,6.29
2022-10-18T04:12:11.833Z,6.28
2022-10-18T04:14:39.676Z,6.22
2022-10-18T04:17:07.700Z,6.20
2022-10-18T04:19:35.663Z,6.30
2022-10-18T04:22:03.640Z,6.35
2022-10-18T04:24:31.458Z,6.32
2022-10-18T04:26:59.356Z,6.33
2022-10-18T04:29:27.169Z,6.42
2022-10-18T04:31:54.998Z,6.37
2022-10-18T04:34:23.205Z,6.27
2022-10-18T04:36:51.099Z,6.15
2022-10-18T04:39:18.943Z,6.05
2022-10-18T04:41:46.741Z,5.98
2022-10-18T04:44:14.586Z,5.94
2022-10-18T04:46:42.427Z,5.97
2022-10-18T04:49:10.276Z,5.97
2022-10-18T04:51:38.202Z,5.97
2022-10-18T04:54:06.751Z,6.04
2022-10-18T04:56:34.935Z,6.02
2022-10-18T04:59:02.778Z,5.96
2022-10-18T05:01:30.677Z,5.89
2022-10-18T05:03:58.537Z,5.90
2022-10-18T05:06:26.343Z,5.93
2022-10-18T05:08:54.157Z,5.98
2022-10-18T05:11:21.989Z,6.09
2022-10-18T05:13:50.939Z,6.12
2022-10-18T05:16:19.061Z,6.11
2022-10-18T05:18:46.917Z,6.03
2022-10-18T05:21:14.872Z,5.98
2022-10-18T05:23:42.714Z,5.94
2022-10-18T05:26:10.612Z,5.84
2022-10-18T05:28:40.207Z,5.78
2022-10-18T05:31:11.868Z,5.73
2022-10-18T05:33:40.352Z,5.71
2022-10-18T05:36:08.815Z,5.79
2022-10-18T05:38:45.398Z,5.86
2022-10-18T05:41:14.033Z,5.81
2022-10-18T05:43:41.887Z,5.83
2022-10-18T05:46:15.084Z,5.85
2022-10-18T05:48:49.131Z,5.88
2022-10-18T05:51:18.765Z,5.79
2022-10-18T05:53:46.719Z,5.77
2022-10-18T05:56:14.958Z,5.79
2022-10-18T05:58:43.370Z,5.81
2022-10-18T06:01:11.289Z,5.70
2022-10-18T06:03:39.248Z,5.64
2022-10-18T06:06:10.700Z,5.66
2022-10-18T06:08:40.910Z,5.62
2022-10-18T06:11:15.727Z,5.62
2022-10-18T06:13:49.783Z,5.60
2022-10-18T06:16:21.899Z,5.57
2022-10-18T06:18:52.803Z,5.61
2022-10-18T06:21:22.333Z,5.73
2022-10-18T06:23:56.263Z,5.82
2022-10-18T06:26:25.969Z,5.75
2022-10-18T06:28:53.898Z,5.65
2022-10-18T06:31:21.904Z,5.63
2022-10-18T06:33:49.996Z,5.64
2022-10-18T06:36:24.051Z,5.55
2022-10-18T06:38:52.629Z,5.50
2022-10-18T06:41:20.791Z,5.49
2022-10-18T06:43:57.566Z,5.48
2022-10-18T06:46:26.072Z,5.61
2022-10-18T06:48:54.130Z,5.73
2022-10-18T06:51:21.986Z,5.71
2022-10-18T06:53:59.637Z,5.65
2022-10-18T06:56:38.273Z,5.64
2022-10-18T06:59:06.319Z,5.73
2022-10-18T07:01:34.759Z,5.84
2022-10-18T07:04:02.839Z,5.88
2022-10-18T07:06:30.773Z,5.87
2022-10-18T07:08:58.689Z,5.87
2022-10-18T07:11:27.412Z,5.86
2022-10-18T07:14:04.969Z,5.87
2022-10-18T07:16:34.060Z,6.03
2022-10-18T07:19:02.216Z,6.16
2022-10-18T07:21:30.569Z,6.29
2022-10-18T07:23:58.565Z,6.34
2022-10-18T07:26:30.768Z,6.33
2022-10-18T07:29:09.116Z,6.36
2022-10-18T07:31:38.824Z,6.45
2022-10-18T07:34:10.819Z,6.63
2022-10-18T07:36:39.162Z,6.80
2022-10-18T07:39:07.788Z,7.00
2022-10-18T07:41:36.262Z,7.20
2022-10-18T07:44:04.929Z,7.31
2022-10-18T07:46:32.877Z,7.22
2022-10-18T07:49:00.867Z,7.20
2022-10-18T07:51:30.954Z,7.23
2022-10-18T07:53:59.663Z,7.43
2022-10-18T07:56:27.949Z,7.61
2022-10-18T07:58:57.018Z,7.79
2022-10-18T08:01:26.018Z,7.96
2022-10-18T08:03:54.390Z,8.04
2022-10-18T08:06:23.594Z,8.21
2022-10-18T08:08:52.420Z,8.31
2022-10-18T08:11:25.027Z,8.26
2022-10-18T08:13:54.277Z,8.24
2022-10-18T08:16:28.233Z,8.27
2022-10-18T08:18:58.589Z,8.43
2022-10-18T08:21:26.984Z,8.56
2022-10-18T08:23:55.337Z,8.71
2022-10-18T08:26:23.628Z,8.83
2022-10-18T08:29:10.320Z,8.97
2022-10-18T08:31:39.708Z,9.10
2022-10-18T08:34:07.669Z,9.25
2022-10-18T08:36:35.565Z,9.34
2022-10-18T08:39:04.040Z,9.36
2022-10-18T08:41:37.702Z,9.44
2022-10-18T08:44:24.597Z,9.51
2022-10-18T08:47:02.919Z,9.60
2022-10-18T08:49:47.094Z,9.64
2022-10-18T08:52:57.875Z,9.75
2022-10-18T08:55:37.325Z,9.85
2022-10-18T08:58:22.741Z,9.97
2022-10-18T09:00:53.449Z,10.10
2022-10-18T09:03:43.013Z,10.24
2022-10-18T09:06:28.288Z,10.42
2022-10-18T09:09:11.414Z,10.58
2022-10-18T09:11:47.388Z,10.68
2022-10-18T09:14:45.711Z,10.81
2022-10-18T09:17:28.762Z,10.95
2022-10-18T09:20:25.841Z,11.03
2022-10-18T09:23:19.815Z,11.12
2022-10-18T09:25:55.208Z,11.15
2022-10-18T09:28:57.555Z,11.20
2022-10-18T09:31:51.523Z,11.29
2022-10-18T09:34:23.489Z,11.39
2022-10-18T09:36:52.704Z,11.46
2022-10-18T09:39:31.010Z,11.55
2022-10-18T09:42:26.938Z,11.65
2022-10-18T09:45:04.507Z,11.76
2022-10-18T09:47:44.711Z,11.83
2022-10-18T09:50:27.626Z,11.97
2022-10-18T09:53:26.431Z,12.09
2022-10-18T09:56:02.409Z,12.17
2022-10-18T09:58:46.462Z,12.27
2022-10-18T10:01:28.608Z,12.31
2022-10-18T10:03:57.081Z,12.40
2022-10-18T10:06:38.703Z,12.49
2022-10-18T10:09:14.720Z,12.58
2022-10-18T10:11:51.520Z,12.64
2022-10-18T10:14:26.714Z,12.71
2022-10-18T10:17:02.579Z,12.76
2022-10-18T10:19:57.056Z,12.88
2022-10-18T10:22:42.351Z,12.99
2022-10-18T10:25:25.943Z,13.05
2022-10-18T10:27:54.172Z,13.15
2022-10-18T10:30:31.807Z,13.21
2022-10-18T10:32:59.844Z,13.22
2022-10-18T10:35:54.017Z,13.32
2022-10-18T10:38:28.576Z,13.38
2022-10-18T10:40:57.630Z,13.49
2022-10-18T10:43:38.757Z,13.58
2022-10-18T10:46:10.999Z,13.67
2022-10-18T10:48:48.439Z,13.78
2022-10-18T10:51:37.252Z,13.92
2022-10-18T10:54:17.130Z,13.92
2022-10-18T10:57:11.326Z,13.99
2022-10-18T10:59:52.429Z,14.09
2022-10-18T11:02:29.436Z,14.22
2022-10-18T11:05:29.564Z,14.27
2022-10-18T11:08:02.921Z,14.32
2022-10-18T11:10:38.359Z,14.38
2022-10-18T11:13:35.719Z,14.47
2022-10-18T11:16:17.479Z,14.56
2022-10-18T11:18:49.740Z,14.63
2022-10-18T11:21:27.490Z,14.70
2022-10-18T11:23:57.346Z,14.76
2022-10-18T11:26:48.819Z,14.81
2022-10-18T11:29:40.440Z,14.90
2022-10-18T11:32:19.003Z,14.93
2022-10-18T11:35:29.650Z,14.92
2022-10-18T11:38:42.354Z,14.97
2022-10-18T11:41:28.336Z,15.05
2022-10-18T11:44:04.464Z,15.13
2022-10-18T11:47:11.133Z,15.15
2022-10-18T11:49:57.481Z,15.21
2022-10-18T11:52:58.708Z,15.25
2022-10-18T11:55:46.559Z,15.31
2022-10-18T11:58:42.840Z,15.35
2022-10-18T12:01:37.231Z,15.39
2022-10-18T12:04:17.916Z,15.46
2022-10-18T12:06:50.106Z,15.47
2022-10-18T12:09:37.831Z,15.52
2022-10-18T12:12:53.908Z,15.56
2022-10-18T12:15:25.745Z,15.63
2022-10-18T12:17:58.847Z,15.69
2022-10-18T12:20:43.186Z,15.74
2022-10-18T12:23:29.180Z,15.80
2022-10-18T12:26:03.937Z,15.86
2022-10-18T12:29:19.782Z,15.93
2022-10-18T12:31:52.859Z,16.02
2022-10-18T12:34:23.855Z,16.08
2022-10-18T12:37:28.778Z,16.16
2022-10-18T12:40:16.814Z,16.27
2022-10-18T12:42:50.530Z,16.30
2022-10-18T12:45:33.290Z,16.33
2022-10-18T12:48:06.726Z,16.42
2022-10-18T12:50:43.837Z,16.50
2022-10-18T12:53:23.215Z,16.56
2022-10-18T12:55:53.695Z,16.58
2022-10-18T12:58:30.854Z,16.64
2022-10-18T13:01:02.641Z,16.71
2022-10-18T13:03:55.195Z,16.74
2022-10-18T13:06:24.225Z,16.74
2022-10-18T13:09:21.135Z,16.73
2022-10-18T13:11:50.181Z,16.76
2022-10-18T13:14:35.534Z,16.76
2022-10-18T13:17:26.339Z,16.77
2022-10-18T13:20:25.024Z,16.80
2022-10-18T13:26:21.651Z,16.82
2022-10-18T13:28:54.592Z,16.84
2022-10-18T13:31:34.587Z,16.83
2022-10-18T13:34:35.476Z,16.86
2022-10-18T13:37:18.842Z,16.87
2022-10-18T13:39:47.599Z,16.89
2022-10-18T13:42:15.324Z,16.91
2022-10-18T13:44:44.755Z,16.94
2022-10-18T13:47:31.967Z,17.00
2022-10-18T13:50:26.713Z,16.99
2022-10-18T13:53:24.068Z,17.00
2022-10-18T13:56:06.550Z,17.06
2022-10-18T13:59:06.079Z,17.07
2022-10-18T14:02:51.471Z,17.06
2022-10-18T14:05:29.231Z,17.06
2022-10-18T14:08:08.077Z,17.07
2022-10-18T14:11:10.186Z,17.07
2022-10-18T14:14:02.347Z,17.06
2022-10-18T14:16:43.482Z,17.07
2022-10-18T14:19:29.410Z,17.13
2022-10-18T14:22:22.233Z,17.16
2022-10-18T14:24:59.607Z,17.13
2022-10-18T14:27:33.096Z,17.12
2022-10-18T14:30:15.659Z,17.14
2022-10-18T14:32:50.692Z,17.11
2022-10-18T14:35:33.561Z,17.09
2022-10-18T14:38:02.882Z,17.12
2022-10-18T14:40:41.333Z,17.13
2022-10-18T14:43:09.089Z,17.16
2022-10-18T14:45:36.994Z,17.17
2022-10-18T14:48:15.083Z,17.17
2022-10-18T14:50:50.744Z,17.18
2022-10-18T14:53:25.188Z,17.18
2022-10-18T14:55:56.518Z,17.18
2022-10-18T14:58:24.611Z,17.17
2022-10-18T15:00:54.194Z,17.13
2022-10-18T15:03:22.713Z,17.08
2022-10-18T15:05:55.443Z,16.98
2022-10-18T15:08:26.831Z,16.86
2022-10-18T15:10:55.307Z,16.76
2022-10-18T15:13:25.167Z,16.71
2022-10-18T15:15:55.370Z,16.63
2022-10-18T15:18:26.937Z,16.53
2022-10-18T15:21:24.135Z,16.44
2022-10-18T15:23:52.459Z,16.42
2022-10-18T15:26:30.430Z,16.41
2022-10-18T15:29:01.534Z,16.48
2022-10-18T15:31:37.444Z,16.51
2022-10-18T15:34:18.601Z,16.52
2022-10-18T15:36:48.899Z,16.55
2022-10-18T15:39:32.017Z,16.53
2022-10-18T15:42:02.519Z,16.42
2022-10-18T15:44:34.641Z,16.40
2022-10-18T15:47:20.563Z,16.43
2022-10-18T15:49:54.578Z,16.47
2022-10-18T15:52:43.370Z,16.49
2022-10-18T15:55:29.753Z,16.45
2022-10-18T15:58:13.148Z,16.39
2022-10-18T16:00:44.158Z,16.31
2022-10-18T16:03:12.681Z,16.27
2022-10-18T16:05:41.298Z,16.23
2022-10-18T16:08:26.441Z,16.22
2022-10-18T16:10:54.472Z,16.12
2022-10-18T16:13:22.375Z,15.95
2022-10-18T16:15:50.604Z,15.85
2022-10-18T16:18:20.503Z,15.76
2022-10-18T16:20:48.844Z,15.68
2022-10-18T16:23:21.775Z,15.67
2022-10-18T16:25:50.685Z,15.69
2022-10-18T16:28:22.782Z,15.76
2022-10-18T16:31:01.821Z,15.74
2022-10-18T16:33:30.996Z,15.68
2022-10-18T16:35:59.539Z,15.54
2022-10-18T16:38:37.567Z,15.42
2022-10-18T16:41:08.425Z,15.39
2022-10-18T16:43:37.121Z,15.29
2022-10-18T16:46:05.684Z,15.18
2022-10-18T16:48:34.115Z,15.13
2022-10-18T16:51:02.488Z,15.03
2022-10-18T16:53:30.520Z,14.89
2022-10-18T16:56:02.265Z,14.82
2022-10-18T16:58:33.037Z,14.77
2022-10-18T17:01:02.914Z,14.66
2022-10-18T17:03:33.248Z,14.51
2022-10-18T17:06:01.214Z,14.36
2022-10-18T17:08:29.153Z,14.23
2022-10-18T17:10:59.383Z,14.13
2022-10-18T17:13:27.393Z,14.04
2022-10-18T17:15:55.291Z,13.97
2022-10-18T17:18:30.617Z,13.96
2022-10-18T17:21:02.596Z,13.92
2022-10-18T17:23:31.193Z,13.80
2022-10-18T17:26:07.173Z,13.65
2022-10-18T17:28:50.894Z,13.59
2022-10-18T17:31:18.812Z,13.50
2022-10-18T17:33:47.131Z,13.44
2022-10-18T17:36:17.556Z,13.47
2022-10-18T17:38:48.278Z,13.45
2022-10-18T17:41:16.334Z,13.43
2022-10-18T17:43:44.591Z,13.40
2022-10-18T17:46:14.244Z,13.28
2022-10-18T17:48:42.243Z,13.20
2022-10-18T17:51:14.427Z,13.14
2022-10-18T17:53:42.490Z,13.10
2022-10-18T17:56:12.399Z,13.05
2022-10-18T17:58:43.247Z,12.93
2022-10-18T18:01:23.282Z,12.85
2022-10-18T18:04:01.299Z,12.79
2022-10-18T18:06:35.602Z,12.71
2022-10-18T18:09:09.372Z,12.57
2022-10-18T18:11:43.424Z,12.53
2022-10-18T18:14:12.318Z,12.44
2022-10-18T18:16:44.475Z,12.35
2022-10-18T18:19:13.695Z,12.31
2022-10-18T18:21:42.942Z,12.30
2022-10-18T18:24:11.553Z,12.31
2022-10-18T18:26:41.931Z,12.24
2022-10-18T18:29:12.936Z,12.16
2022-10-18T18:31:43.745Z,12.11
2022-10-18T18:34:12.056Z,12.10
2022-10-18T18:36:41.321Z,12.07
2022-10-18T18:39:19.189Z,12.07
2022-10-18T18:41:50.471Z,12.08
2022-10-18T18:44:20.551Z,12.11
2022-10-18T18:46:49.018Z,12.11
2022-10-18T18:49:16.884Z,12.12
2022-10-18T18:51:44.813Z,12.11
2022-10-18T18:54:15.161Z,12.08
2022-10-18T18:56:43.351Z,12.09
2022-10-18T18:59:15.706Z,12.03
2022-10-18T19:01:44.574Z,12.04
2022-10-18T19:04:12.785Z,12.02
2022-10-18T19:06:44.368Z,11.93
2022-10-18T19:09:22.015Z,11.83
2022-10-18T19:11:53.322Z,11.80
2022-10-18T19:16:58.912Z,11.73
2022-10-18T19:19:30.986Z,11.61
2022-10-18T19:22:03.661Z,11.58
2022-10-18T19:24:32.125Z,11.54
2022-10-18T19:27:12.535Z,11.52
2022-10-18T19:29:41.802Z,11.57
2022-10-18T19:32:12.295Z,11.54
2022-10-18T19:34:40.491Z,11.58
2022-10-18T19:37:11.876Z,11.64
2022-10-18T19:39:39.876Z,11.55
2022-10-18T19:42:21.181Z,11.42
2022-10-18T19:44:54.173Z,11.38
2022-10-18T19:47:22.106Z,11.30
2022-10-18T19:49:50.358Z,11.29
2022-10-18T19:52:18.347Z,11.27
2022-10-18T19:54:49.486Z,11.26
2022-10-18T19:57:17.451Z,11.25
2022-10-18T19:59:46.054Z,11.23
2022-10-18T20:02:15.266Z,11.20
2022-10-18T20:04:43.334Z,11.20
2022-10-18T20:07:11.301Z,11.22
2022-10-18T20:09:39.904Z,11.21
2022-10-18T20:12:07.843Z,11.19
2022-10-18T20:14:35.732Z,11.26
2022-10-18T20:17:03.913Z,11.31
2022-10-18T20:19:31.892Z,11.28
2022-10-18T20:21:59.720Z,11.35
2022-10-18T20:24:27.634Z,11.33
2022-10-18T20:26:55.529Z,11.29
2022-10-18T20:29:25.390Z,11.29
2022-10-18T20:31:55.952Z,11.31
2022-10-18T20:34:26.101Z,11.27
2022-10-18T20:36:55.436Z,11.27
2022-10-18T20:39:23.541Z,11.25
2022-10-18T20:41:51.458Z,11.23
2022-10-18T20:44:22.707Z,11.22
2022-10-18T20:46:51.109Z,11.15
2022-10-18T20:49:19.429Z,11.13
2022-10-18T20:51:47.359Z,11.09
2022-10-18T20:54:15.313Z,11.10
2022-10-18T20:56:43.213Z,11.11
2022-10-18T20:59:11.641Z,11.07
2022-10-18T21:01:39.827Z,11.05
2022-10-18T21:04:10.619Z,10.95
2022-10-18T21:06:43.485Z,10.89
2022-10-18T21:09:19.331Z,10.87
2022-10-18T21:11:53.842Z,10.89
2022-10-18T21:14:24.828Z,10.91
2022-10-18T21:16:52.920Z,10.95
2022-10-18T21:19:27.290Z,10.93
2022-10-18T21:21:57.859Z,10.93
2022-10-18T21:24:27.680Z,10.96
2022-10-18T21:26:56.292Z,10.95
2022-10-18T21:29:27.268Z,10.94
2022-10-18T21:31:59.106Z,10.95
2022-10-18T21:34:27.014Z,10.97
2022-10-18T21:36:54.971Z,11.01
2022-10-18T21:41:57.216Z,11.09
2022-10-18T21:44:25.481Z,11.09
2022-10-18T21:46:55.026Z,11.15
2022-10-18T21:49:25.011Z,11.17
2022-10-18T21:51:52.956Z,11.17
2022-10-18T21:54:20.911Z,11.18
2022-10-18T21:56:48.799Z,11.17
2022-10-18T21:59:16.673Z,11.16
2022-10-18T22:01:45.716Z,11.16
2022-10-18T22:04:25.396Z,11.14
2022-10-18T22:06:53.292Z,11.17
2022-10-18T22:09:22.187Z,11.19
2022-10-18T22:11:53.252Z,11.19
2022-10-18T22:14:22.063Z,11.18
2022-10-18T22:16:50.103Z,11.12
2022-10-18T22:19:18.346Z,11.13
2022-10-18T22:21:46.417Z,11.13
2022-10-18T22:24:14.555Z,11.10
2022-10-18T22:26:44.303Z,11.06
2022-10-18T22:29:13.538Z,11.05
2022-10-18T22:31:49.311Z,11.04
2022-10-18T22:34:21.014Z,11.03
2022-10-18T22:36:49.296Z,11.02
2022-10-18T22:39:18.084Z,11.05
2022-10-18T22:41:46.908Z,11.05
2022-10-18T22:44:15.419Z,11.09
2022-10-18T22:46:43.618Z,11.10
2022-10-18T22:49:12.665Z,11.10
2022-10-18T22:51:40.637Z,11.10
2022-10-18T22:54:09.228Z,11.14
2022-10-18T22:56:37.105Z,11.16
2022-10-18T22:59:04.991Z,11.18
2022-10-18T23:01:32.875Z,11.15
2022-10-18T23:04:02.124Z,11.15
2022-10-18T23:06:33.988Z,11.13
2022-10-18T23:09:07.627Z,11.14
2022-10-18T23:11:36.604Z,11.12
2022-10-18T23:14:06.594Z,11.11
2022-10-18T23:16:35.284Z,11.08
2022-10-18T23:19:04.231Z,11.06
2022-10-18T23:21:34.159Z,11.06
2022-10-18T23:24:02.061Z,11.04
2022-10-18T23:26:29.923Z,11.04
2022-10-18T23:28:57.932Z,11.05
2022-10-18T23:31:30.386Z,11.03
2022-10-18T23:34:03.648Z,11.04
2022-10-18T23:36:33.894Z,11.02
2022-10-18T23:39:04.041Z,11.03
2022-10-18T23:41:32.255Z,11.06
2022-10-18T23:44:00.121Z,11.09
2022-10-18T23:46:28.691Z,11.07
2022-10-18T23:48:56.514Z,11.04
2022-10-18T23:51:24.333Z,11.03
2022-10-18T23:53:52.263Z,11.04
2022-10-18T23:56:20.087Z,11.00
2022-10-18T23:58:47.875Z,10.94
